createdAt,value
2018-06-28T00:00:06.750Z,19.20
2018-06-28T00:02:36.701Z,19.19
2018-06-28T00:05:07.350Z,19.22
2018-06-28T00:07:37.969Z,19.20
2018-06-28T00:10:08.940Z,19.17
2018-06-28T00:12:40.301Z,19.15
2018-06-28T00:15:10.901Z,19.13
2018-06-28T00:17:42.415Z,19.06
2018-06-28T00:20:12.366Z,19.05
2018-06-28T00:22:43.073Z,19.09
2018-06-28T00:25:14.042Z,19.07
2018-06-28T00:27:44.992Z,19.05
2018-06-28T00:30:15.982Z,19.05
2018-06-28T00:32:46.919Z,19.01
2018-06-28T00:35:18.238Z,19.06
2018-06-28T00:37:49.054Z,19.06
2018-06-28T00:40:19.886Z,19.01
2018-06-28T00:42:51.327Z,18.97
2018-06-28T00:45:21.883Z,18.98
2018-06-28T00:47:53.590Z,19.02
2018-06-28T00:50:24.154Z,18.97
2018-06-28T00:52:54.987Z,18.96
2018-06-28T00:55:26.298Z,18.93
2018-06-28T00:57:57.002Z,18.95
2018-06-28T01:00:27.058Z,18.88
2018-06-28T01:02:58.025Z,18.86
2018-06-28T01:05:28.986Z,18.88
2018-06-28T01:08:00.342Z,18.83
2018-06-28T01:10:30.266Z,18.78
2018-06-28T01:13:01.089Z,18.82
2018-06-28T01:15:31.027Z,18.79
2018-06-28T01:18:01.970Z,18.79
2018-06-28T01:20:32.926Z,18.77
2018-06-28T01:23:04.385Z,18.77
2018-06-28T01:25:34.998Z,18.82
2018-06-28T01:28:06.055Z,18.73
2018-06-28T01:30:36.981Z,18.76
2018-06-28T01:33:08.231Z,18.73
2018-06-28T01:35:38.911Z,18.66
2018-06-28T01:38:09.256Z,18.68
2018-06-28T01:40:40.015Z,18.74
2018-06-28T01:43:36.418Z,18.71
2018-06-28T01:46:06.618Z,18.63
2018-06-28T01:48:36.692Z,18.62
2018-06-28T01:51:06.690Z,18.60
2018-06-28T01:53:36.645Z,18.57
2018-06-28T01:56:06.682Z,18.58
2018-06-28T01:58:36.634Z,18.58
2018-06-28T02:01:06.643Z,18.51
2018-06-28T02:03:36.621Z,18.59
2018-06-28T02:06:06.685Z,18.58
2018-06-28T02:08:36.925Z,18.51
2018-06-28T02:11:07.494Z,18.51
2018-06-28T02:13:37.465Z,18.51
2018-06-28T02:16:07.482Z,18.49
2018-06-28T02:18:37.552Z,18.56
2018-06-28T02:21:07.648Z,18.51
2018-06-28T02:23:37.772Z,18.58
2018-06-28T02:26:07.770Z,18.57
2018-06-28T02:28:37.889Z,18.52
2018-06-28T02:31:07.780Z,18.50
2018-06-28T02:33:37.825Z,18.47
2018-06-28T02:36:07.745Z,18.49
2018-06-28T02:38:37.754Z,18.54
2018-06-28T02:41:07.811Z,18.54
2018-06-28T02:43:37.879Z,18.47
2018-06-28T02:46:07.855Z,18.40
2018-06-28T02:48:37.865Z,18.42
2018-06-28T02:51:08.382Z,18.41
2018-06-28T02:53:39.025Z,18.41
2018-06-28T02:56:09.941Z,18.46
2018-06-28T02:58:40.975Z,18.42
2018-06-28T03:01:12.191Z,18.46
2018-06-28T03:03:42.351Z,18.38
2018-06-28T03:06:12.981Z,18.36
2018-06-28T03:08:43.986Z,18.33
2018-06-28T03:11:14.936Z,18.36
2018-06-28T03:13:46.269Z,18.38
2018-06-28T03:16:17.069Z,18.39
2018-06-28T03:18:48.015Z,18.43
2018-06-28T03:21:19.057Z,18.36
2018-06-28T03:23:49.990Z,18.34
2018-06-28T03:26:20.997Z,18.34
2018-06-28T03:28:51.943Z,18.43
2018-06-28T03:31:23.493Z,18.35
2018-06-28T03:33:54.142Z,18.32
2018-06-28T03:36:25.366Z,18.37
2018-06-28T03:38:56.030Z,18.33
2018-06-28T03:41:26.928Z,18.34
2018-06-28T03:43:58.319Z,18.40
2018-06-28T03:46:28.917Z,18.37
2018-06-28T03:49:00.358Z,18.36
2018-06-28T03:51:31.013Z,18.34
2018-06-28T03:54:01.977Z,18.36
2018-06-28T03:56:33.318Z,18.35
2018-06-28T03:59:04.221Z,18.35
2018-06-28T04:01:35.078Z,18.38
2018-06-28T04:04:06.024Z,18.41
2018-06-28T04:06:37.045Z,18.45
2018-06-28T04:09:11.594Z,18.46
2018-06-28T04:11:42.018Z,18.46
2018-06-28T04:14:11.999Z,18.50
2018-06-28T04:16:41.887Z,18.46
2018-06-28T04:19:12.065Z,18.48
2018-06-28T04:21:42.005Z,18.54
2018-06-28T04:24:13.018Z,18.53
2018-06-28T04:26:44.031Z,18.51
2018-06-28T04:29:14.955Z,18.50
2018-06-28T04:31:45.510Z,18.54
2018-06-28T04:34:16.167Z,18.54
2018-06-28T04:36:46.958Z,18.50
2018-06-28T04:39:18.601Z,18.47
2018-06-28T04:41:49.123Z,18.53
2018-06-28T04:44:19.942Z,18.48
2018-06-28T04:46:51.703Z,18.48
2018-06-28T04:49:22.674Z,18.44
2018-06-28T04:51:53.237Z,18.44
2018-06-28T04:54:23.965Z,18.41
2018-06-28T04:56:53.893Z,18.45
2018-06-28T04:59:25.426Z,18.49
2018-06-28T05:01:55.991Z,18.54
2018-06-28T05:04:26.998Z,18.49
2018-06-28T05:06:57.946Z,18.51
2018-06-28T05:09:29.198Z,18.48
2018-06-28T05:11:59.902Z,18.47
2018-06-28T05:14:31.362Z,18.46
2018-06-28T05:17:01.970Z,18.47
2018-06-28T05:19:32.997Z,18.47
2018-06-28T05:22:04.418Z,18.48
2018-06-28T05:24:35.077Z,18.50
2018-06-28T05:27:06.059Z,18.53
2018-06-28T05:29:37.029Z,18.51
2018-06-28T05:32:07.629Z,18.56
2018-06-28T05:34:38.314Z,18.54
2018-06-28T05:37:09.047Z,18.60
2018-06-28T05:39:39.029Z,18.60
2018-06-28T05:42:09.950Z,18.58
2018-06-28T05:44:40.948Z,18.59
2018-06-28T05:47:12.619Z,18.65
2018-06-28T05:49:43.416Z,18.66
2018-06-28T05:52:13.998Z,18.65
2018-06-28T05:54:45.030Z,18.55
2018-06-28T05:57:15.940Z,18.57
2018-06-28T05:59:47.457Z,18.63
2018-06-28T06:02:17.341Z,18.68
2018-06-28T06:04:48.246Z,18.64
2018-06-28T06:07:18.870Z,18.62
2018-06-28T06:09:50.206Z,18.70
2018-06-28T06:12:20.917Z,18.75
2018-06-28T06:14:51.984Z,18.74
2018-06-28T06:17:22.859Z,18.77
2018-06-28T06:19:54.286Z,18.75
2018-06-28T06:22:24.854Z,18.72
2018-06-28T06:24:56.385Z,18.71
2018-06-28T06:27:26.905Z,18.77
2018-06-28T06:29:58.260Z,18.96
2018-06-28T06:32:28.912Z,19.13
2018-06-28T06:35:00.195Z,19.19
2018-06-28T06:37:30.889Z,19.23
2018-06-28T06:40:02.461Z,19.28
2018-06-28T06:42:32.345Z,19.32
2018-06-28T06:45:02.912Z,19.41
2018-06-28T06:47:34.133Z,19.46
2018-06-28T06:50:05.166Z,19.58
2018-06-28T06:52:35.807Z,19.70
2018-06-28T06:55:06.238Z,19.78
2018-06-28T06:57:36.918Z,19.87
2018-06-28T07:00:08.608Z,19.97
2018-06-28T07:02:39.074Z,20.03
2018-06-28T07:05:08.910Z,20.13
2018-06-28T07:07:38.778Z,20.14
2018-06-28T07:10:10.523Z,20.12
2018-06-28T07:12:41.230Z,20.20
2018-06-28T07:15:12.010Z,20.23
2018-06-28T07:17:43.017Z,20.18
2018-06-28T07:20:13.878Z,20.19
2018-06-28T07:22:44.107Z,20.22
2018-06-28T07:25:15.036Z,20.22
2018-06-28T07:27:45.856Z,20.24
2018-06-28T07:30:17.228Z,20.24
2018-06-28T07:32:47.034Z,20.21
2018-06-28T07:35:17.893Z,20.21
2018-06-28T07:37:49.403Z,20.24
2018-06-28T07:40:19.935Z,20.27
2018-06-28T07:42:51.483Z,20.28
2018-06-28T07:45:22.018Z,20.27
2018-06-28T07:47:51.791Z,20.26
2018-06-28T07:50:23.243Z,20.27
2018-06-28T07:52:54.272Z,20.29
2018-06-28T07:55:24.949Z,20.25
2018-06-28T07:57:55.865Z,20.24
2018-06-28T08:00:27.470Z,20.26
2018-06-28T08:02:58.087Z,20.23
2018-06-28T08:05:29.438Z,20.21
2018-06-28T08:08:00.133Z,20.10
2018-06-28T08:10:30.910Z,20.09
2018-06-28T08:13:02.176Z,19.93
2018-06-28T08:15:32.906Z,19.85
2018-06-28T08:18:04.678Z,19.90
2018-06-28T08:20:35.222Z,19.87
2018-06-28T08:23:05.866Z,19.79
2018-06-28T08:25:37.444Z,19.86
2018-06-28T08:28:07.259Z,19.91
2018-06-28T08:30:37.952Z,19.95
2018-06-28T08:33:09.238Z,19.86
2018-06-28T08:35:39.894Z,19.83
2018-06-28T08:38:11.226Z,19.81
2018-06-28T08:40:41.925Z,19.71
2018-06-28T08:43:13.413Z,19.80
2018-06-28T08:45:44.027Z,19.73
2018-06-28T08:48:14.823Z,19.48
2018-06-28T08:50:46.238Z,19.59
2018-06-28T08:53:16.813Z,19.49
2018-06-28T08:55:48.218Z,19.56
2018-06-28T08:58:18.864Z,19.68
2018-06-28T09:00:49.890Z,19.70
2018-06-28T09:03:21.153Z,19.78
2018-06-28T09:05:50.990Z,19.80
2018-06-28T09:08:21.890Z,19.76
2018-06-28T09:10:53.148Z,19.77
2018-06-28T09:13:23.890Z,19.64
2018-06-28T09:15:55.276Z,19.69
2018-06-28T09:18:25.903Z,19.61
2018-06-28T09:20:55.967Z,19.58
2018-06-28T09:23:27.266Z,19.57
2018-06-28T09:26:00.330Z,19.40
2018-06-28T09:28:30.783Z,19.46
2018-06-28T09:31:00.705Z,19.30
2018-06-28T09:33:31.274Z,19.15
2018-06-28T09:36:01.996Z,19.10
2018-06-28T09:38:32.857Z,19.21
2018-06-28T09:41:03.405Z,19.15
2018-06-28T09:43:33.946Z,19.25
2018-06-28T09:46:05.398Z,19.24
2018-06-28T09:48:36.069Z,19.32
2018-06-28T09:51:06.967Z,19.37
2018-06-28T09:53:38.242Z,19.47
2018-06-28T09:56:09.328Z,19.43
2018-06-28T09:58:39.932Z,19.39
2018-06-28T10:01:10.990Z,19.37
2018-06-28T10:03:42.350Z,19.22
2018-06-28T10:06:12.994Z,19.35
2018-06-28T10:08:43.941Z,19.16
2018-06-28T10:11:14.258Z,19.11
2018-06-28T10:13:44.918Z,19.24
2018-06-28T10:16:15.910Z,19.35
2018-06-28T10:18:47.301Z,19.42
2018-06-28T10:21:18.014Z,19.49
2018-06-28T10:23:49.021Z,19.56
2018-06-28T10:26:20.067Z,19.63
2018-06-28T10:28:50.957Z,19.73
2018-06-28T10:31:21.586Z,19.83
2018-06-28T10:33:52.191Z,19.91
2018-06-28T10:36:23.018Z,19.97
2018-06-28T10:38:53.969Z,20.02
2018-06-28T10:41:25.368Z,20.10
2018-06-28T10:43:56.325Z,20.04
2018-06-28T10:46:26.949Z,20.08
2018-06-28T10:48:58.316Z,20.10
2018-06-28T10:51:28.950Z,20.07
2018-06-28T10:54:00.252Z,20.14
2018-06-28T10:56:31.022Z,20.11
2018-06-28T10:59:01.911Z,20.16
2018-06-28T11:01:33.755Z,20.15
2018-06-28T11:04:03.606Z,20.13
2018-06-28T11:06:34.216Z,20.12
2018-06-28T11:09:07.262Z,20.13
2018-06-28T11:11:37.741Z,20.18
2018-06-28T11:14:07.592Z,20.22
2018-06-28T11:16:38.203Z,20.28
2018-06-28T11:19:09.393Z,20.39
2018-06-28T11:21:40.097Z,20.51
2018-06-28T11:24:10.968Z,20.63
2018-06-28T11:26:42.497Z,20.76
2018-06-28T11:29:13.171Z,20.92
2018-06-28T11:31:44.563Z,20.99
2018-06-28T11:34:15.191Z,21.10
2018-06-28T11:36:46.043Z,21.23
2018-06-28T11:39:16.928Z,21.33
2018-06-28T11:41:48.289Z,21.35
2018-06-28T11:44:18.856Z,21.44
2018-06-28T11:46:49.369Z,21.49
2018-06-28T11:49:19.954Z,21.50
2018-06-28T11:51:50.962Z,21.59
2018-06-28T11:54:21.948Z,21.59
2018-06-28T11:56:53.221Z,21.54
2018-06-28T11:59:23.942Z,21.59
2018-06-28T12:01:55.337Z,21.57
2018-06-28T12:04:25.879Z,21.63
2018-06-28T12:06:57.400Z,21.65
2018-06-28T12:09:27.951Z,21.63
2018-06-28T12:11:59.266Z,21.66
2018-06-28T12:14:29.961Z,21.65
2018-06-28T12:17:01.445Z,21.78
2018-06-28T12:19:32.034Z,21.86
2018-06-28T12:22:02.955Z,21.94
2018-06-28T12:24:33.817Z,22.02
2018-06-28T12:27:05.249Z,22.07
2018-06-28T12:29:35.787Z,22.11
2018-06-28T12:32:07.690Z,22.20
2018-06-28T12:34:38.217Z,22.20
2018-06-28T12:37:08.929Z,22.26
2018-06-28T12:39:39.926Z,22.35
2018-06-28T12:42:11.306Z,22.49
2018-06-28T12:44:41.097Z,22.59
2018-06-28T12:47:50.099Z,22.73
2018-06-28T12:50:20.016Z,23.01
2018-06-28T12:52:59.817Z,23.18
2018-06-28T12:55:39.484Z,23.20
2018-06-28T12:58:09.466Z,23.18
2018-06-28T13:00:39.594Z,23.08
2018-06-28T13:03:09.465Z,23.16
2018-06-28T13:05:39.610Z,23.18
2018-06-28T13:08:09.702Z,23.26
2018-06-28T13:10:39.511Z,23.32
2018-06-28T13:13:09.507Z,23.35
2018-06-28T13:15:39.314Z,23.44
2018-06-28T13:18:09.486Z,23.54
2018-06-28T13:20:39.429Z,23.62
2018-06-28T13:23:09.445Z,23.76
2018-06-28T13:25:39.441Z,23.82
2018-06-28T13:28:09.366Z,24.00
2018-06-28T13:30:39.417Z,23.95
2018-06-28T13:33:09.326Z,24.05
2018-06-28T13:35:41.470Z,24.05
2018-06-28T13:38:11.653Z,24.00
2018-06-28T13:40:41.928Z,24.07
2018-06-28T13:43:12.506Z,24.08
2018-06-28T13:45:42.584Z,24.12
2018-06-28T13:48:12.494Z,24.19
2018-06-28T13:50:42.575Z,24.19
2018-06-28T13:53:12.476Z,24.19
2018-06-28T13:55:42.707Z,24.25
2018-06-28T13:58:13.090Z,24.28
2018-06-28T14:00:43.464Z,24.25
2018-06-28T14:03:13.638Z,24.30
2018-06-28T14:05:43.829Z,24.49
2018-06-28T14:08:13.974Z,24.58
2018-06-28T14:10:43.870Z,24.76
2018-06-28T14:13:14.722Z,24.84
2018-06-28T14:15:44.618Z,24.89
2018-06-28T14:18:14.592Z,24.74
2018-06-28T14:20:44.575Z,24.77
2018-06-28T14:23:14.468Z,24.66
2018-06-28T14:25:44.799Z,24.49
2018-06-28T14:28:14.971Z,24.53
2018-06-28T14:30:45.006Z,24.64
2018-06-28T14:33:14.986Z,24.67
2018-06-28T14:35:44.955Z,24.69
2018-06-28T14:38:15.722Z,24.74
2018-06-28T14:40:45.646Z,24.80
2018-06-28T14:43:15.536Z,24.74
2018-06-28T14:45:45.546Z,24.68
2018-06-28T14:48:15.579Z,24.75
2018-06-28T14:50:45.442Z,24.72
2018-06-28T14:53:15.585Z,24.71
2018-06-28T14:55:45.716Z,24.72
2018-06-28T14:58:15.705Z,24.70
2018-06-28T15:00:45.585Z,24.76
2018-06-28T15:03:15.607Z,24.72
2018-06-28T15:05:45.699Z,24.72
2018-06-28T15:08:15.736Z,24.69
2018-06-28T15:10:45.734Z,24.72
2018-06-28T15:13:15.728Z,24.73
2018-06-28T15:15:45.670Z,24.67
2018-06-28T15:18:15.622Z,24.70
2018-06-28T15:20:46.305Z,24.62
2018-06-28T15:23:16.734Z,24.60
2018-06-28T15:25:46.684Z,24.53
2018-06-28T15:28:16.651Z,24.50
2018-06-28T15:30:47.028Z,24.52
2018-06-28T15:33:18.001Z,24.52
2018-06-28T15:35:48.658Z,24.53
2018-06-28T15:38:19.149Z,24.58
2018-06-28T15:40:49.113Z,24.59
2018-06-28T15:43:19.466Z,24.61
2018-06-28T15:45:49.424Z,24.61
2018-06-28T15:48:20.030Z,24.56
2018-06-28T15:50:50.966Z,24.47
2018-06-28T15:53:21.974Z,24.41
2018-06-28T15:55:52.819Z,24.38
2018-06-28T15:58:24.581Z,24.45
2018-06-28T16:00:55.088Z,24.46
2018-06-28T16:03:25.949Z,24.35
2018-06-28T16:05:56.898Z,24.39
2018-06-28T16:08:28.398Z,24.27
2018-06-28T16:10:59.045Z,24.30
2018-06-28T16:13:29.957Z,24.11
2018-06-28T16:16:00.855Z,24.05
2018-06-28T16:18:32.378Z,23.97
2018-06-28T16:21:02.957Z,23.94
2018-06-28T16:23:33.994Z,23.97
2018-06-28T16:26:05.146Z,23.95
2018-06-28T16:28:35.927Z,23.90
2018-06-28T16:31:07.268Z,23.94
2018-06-28T16:33:38.048Z,23.95
2018-06-28T16:36:08.998Z,23.97
2018-06-28T16:38:40.018Z,23.96
2018-06-28T16:41:10.843Z,23.95
2018-06-28T16:43:42.242Z,23.92
2018-06-28T16:46:12.952Z,23.81
2018-06-28T16:48:44.016Z,23.80
2018-06-28T16:51:14.901Z,23.77
2018-06-28T16:53:46.229Z,23.84
2018-06-28T16:56:16.860Z,23.86
2018-06-28T16:58:48.208Z,23.85
2018-06-28T17:01:18.977Z,23.80
2018-06-28T17:03:50.073Z,23.78
2018-06-28T17:06:20.937Z,23.76
2018-06-28T17:08:51.981Z,23.72
2018-06-28T17:11:21.921Z,23.69
2018-06-28T17:13:53.704Z,23.71
2018-06-28T17:16:24.444Z,23.73
2018-06-28T17:18:55.261Z,23.67
2018-06-28T17:21:25.874Z,23.70
2018-06-28T17:27:13.785Z,23.70
2018-06-28T17:29:43.740Z,23.66
2018-06-28T17:32:13.946Z,23.63
2018-06-28T17:34:43.843Z,23.60
2018-06-28T17:37:14.015Z,23.57
2018-06-28T17:39:44.334Z,23.49
2018-06-28T17:42:14.918Z,23.47
2018-06-28T17:44:44.894Z,23.46
2018-06-28T17:47:14.773Z,23.48
2018-06-28T17:49:44.809Z,23.44
2018-06-28T17:52:14.706Z,23.31
2018-06-28T17:54:44.603Z,23.25
2018-06-28T17:57:14.417Z,23.26
2018-06-28T17:59:44.458Z,23.27
2018-06-28T18:02:14.462Z,23.22
2018-06-28T18:04:44.837Z,23.15
2018-06-28T18:07:14.658Z,23.10
2018-06-28T18:09:44.952Z,23.12
2018-06-28T18:12:14.782Z,23.08
2018-06-28T18:14:44.706Z,23.01
2018-06-28T18:17:14.520Z,22.98
2018-06-28T18:19:44.402Z,22.89
2018-06-28T18:22:14.437Z,22.89
2018-06-28T18:24:44.417Z,22.89
2018-06-28T18:27:14.491Z,22.85
2018-06-28T18:29:44.501Z,22.85
2018-06-28T18:32:14.322Z,22.83
2018-06-28T18:34:44.557Z,22.87
2018-06-28T18:37:14.379Z,22.74
2018-06-28T18:39:44.761Z,22.75
2018-06-28T18:42:14.662Z,22.74
2018-06-28T18:44:44.792Z,22.68
2018-06-28T18:47:14.934Z,22.66
2018-06-28T18:49:45.125Z,22.61
2018-06-28T18:52:15.042Z,22.59
2018-06-28T18:54:45.372Z,22.57
2018-06-28T18:57:15.429Z,22.52
2018-06-28T18:59:45.429Z,22.43
2018-06-28T19:02:15.412Z,22.44
2018-06-28T19:04:45.505Z,22.46
2018-06-28T19:07:15.493Z,22.45
2018-06-28T19:09:50.419Z,22.44
2018-06-28T19:12:20.708Z,22.45
2018-06-28T19:14:55.506Z,22.47
2018-06-28T19:17:25.437Z,22.48
2018-06-28T19:19:55.602Z,22.46
2018-06-28T19:22:30.478Z,22.47
2018-06-28T19:25:00.466Z,22.47
2018-06-28T19:27:30.606Z,22.50
2018-06-28T19:30:05.392Z,22.50
2018-06-28T19:32:35.906Z,22.46
2018-06-28T19:35:05.832Z,22.48
2018-06-28T19:37:40.474Z,22.51
2018-06-28T19:40:15.658Z,22.54
2018-06-28T19:42:50.483Z,22.56
2018-06-28T19:45:20.430Z,22.57
2018-06-28T19:47:57.725Z,22.58
2018-06-28T19:50:40.163Z,22.60
2018-06-28T19:53:11.898Z,22.58
2018-06-28T19:55:41.823Z,22.59
2018-06-28T19:58:11.632Z,22.60
2018-06-28T20:00:46.472Z,22.60
2018-06-28T20:03:21.364Z,22.60
2018-06-28T20:05:51.651Z,22.63
2018-06-28T20:08:21.645Z,22.61
2018-06-28T20:10:51.676Z,22.61
2018-06-28T20:13:26.669Z,22.55
2018-06-28T20:16:01.479Z,22.50
2018-06-28T20:18:36.251Z,22.47
2018-06-28T20:21:06.446Z,22.51
2018-06-28T20:23:36.360Z,22.47
2018-06-28T20:26:11.429Z,22.52
2018-06-28T20:28:46.090Z,22.49
2018-06-28T20:31:20.917Z,22.43
2018-06-28T20:33:55.486Z,22.45
2018-06-28T20:36:25.497Z,22.45
2018-06-28T20:38:55.471Z,22.47
2018-06-28T20:41:25.523Z,22.48
2018-06-28T20:43:55.672Z,22.49
2018-06-28T20:46:25.485Z,22.50
2018-06-28T20:48:55.414Z,22.53
2018-06-28T20:51:25.435Z,22.49
2018-06-28T20:53:55.477Z,22.43
2018-06-28T20:56:25.441Z,22.39
2018-06-28T20:58:55.441Z,22.33
2018-06-28T21:01:25.510Z,22.30
2018-06-28T21:03:55.395Z,22.28
2018-06-28T21:06:25.498Z,22.24
2018-06-28T21:08:55.658Z,22.23
2018-06-28T21:11:25.488Z,22.22
2018-06-28T21:13:55.432Z,22.21
2018-06-28T21:16:27.373Z,22.12
2018-06-28T21:18:57.473Z,22.09
2018-06-28T21:21:27.465Z,22.00
2018-06-28T21:23:57.489Z,21.94
2018-06-28T21:26:27.450Z,21.90
2018-06-28T21:28:57.424Z,21.82
2018-06-28T21:31:27.528Z,21.80
2018-06-28T21:33:57.414Z,21.76
2018-06-28T21:36:27.464Z,21.73
2018-06-28T21:38:57.566Z,21.72
2018-06-28T21:41:27.487Z,21.70
2018-06-28T21:43:57.598Z,21.65
2018-06-28T21:46:27.562Z,21.64
2018-06-28T21:48:57.421Z,21.60
2018-06-28T21:51:27.541Z,21.55
2018-06-28T21:53:57.414Z,21.55
2018-06-28T21:56:27.574Z,21.49
2018-06-28T21:58:57.395Z,21.52
2018-06-28T22:01:27.473Z,21.52
2018-06-28T22:03:57.389Z,21.50
2018-06-28T22:06:27.450Z,21.47
2018-06-28T22:08:57.399Z,21.46
2018-06-28T22:11:27.471Z,21.45
2018-06-28T22:13:57.390Z,21.42
2018-06-28T22:16:27.418Z,21.42
2018-06-28T22:18:57.433Z,21.40
2018-06-28T22:21:27.433Z,21.33
2018-06-28T22:23:57.411Z,21.29
2018-06-28T22:26:27.475Z,21.34
2018-06-28T22:28:57.392Z,21.28
2018-06-28T22:31:27.855Z,21.29
2018-06-28T22:33:58.068Z,21.23
2018-06-28T22:36:27.938Z,21.22
2018-06-28T22:38:57.775Z,21.23
2018-06-28T22:41:27.665Z,21.21
2018-06-28T22:43:57.534Z,21.18
2018-06-28T22:46:27.776Z,21.18
2018-06-28T22:48:57.989Z,21.16
2018-06-28T22:51:27.882Z,21.14
2018-06-28T22:53:57.696Z,21.15
2018-06-28T22:56:27.525Z,21.14
2018-06-28T22:58:57.367Z,21.13
2018-06-28T23:01:27.382Z,21.11
2018-06-28T23:03:57.725Z,21.01
2018-06-28T23:06:27.630Z,20.99
2018-06-28T23:08:57.425Z,20.98
2018-06-28T23:11:27.399Z,20.98
2018-06-28T23:13:57.701Z,20.96
2018-06-28T23:16:27.551Z,20.95
2018-06-28T23:18:57.397Z,20.93
2018-06-28T23:21:27.386Z,20.90
2018-06-28T23:23:57.405Z,20.88
2018-06-28T23:26:27.449Z,20.86
2018-06-28T23:28:57.342Z,20.84
2018-06-28T23:31:27.514Z,20.82
2018-06-28T23:33:57.438Z,20.79
2018-06-28T23:36:27.430Z,20.76
2018-06-28T23:38:57.541Z,20.71
2018-06-28T23:41:27.713Z,20.69
2018-06-28T23:43:57.605Z,20.67
2018-06-28T23:46:27.540Z,20.67
2018-06-28T23:48:57.432Z,20.60
2018-06-28T23:51:27.400Z,20.53
2018-06-28T23:53:57.655Z,20.52
2018-06-28T23:56:35.156Z,20.50
2018-06-28T23:59:05.236Z,20.46
